sensor_id;sensor_type;location;lat;lon;timestamp;pressure;altitude;pressure_sealevel;temperature;humidity
10145;BME280;5113;41.822;23.564;2024-03-22T00:00:46;-11208.56;;;9.91;40.67
10145;BME280;5113;41.822;23.564;2024-03-22T00:03:52;-11227.41;;;10.59;40.02
10145;BME280;5113;41.822;23.564;2024-03-22T00:06:58;-11231.34;;;10.74;39.49
10145;BME280;5113;41.822;23.564;2024-03-22T00:10:05;-11220.38;;;10.34;40.57
10145;BME280;5113;41.822;23.564;2024-03-22T00:13:09;-11245.44;;;11.24;38.94
10145;BME280;5113;41.822;23.564;2024-03-22T00:16:15;-11201.25;;;9.65;40.72
10145;BME280;5113;41.822;23.564;2024-03-22T00:19:20;-11216.88;;;10.21;40.55
10145;BME280;5113;41.822;23.564;2024-03-22T00:22:26;-11227.13;;;10.58;40.00
10145;BME280;5113;41.822;23.564;2024-03-22T00:25:31;-11217.84;;;10.25;40.15
10145;BME280;5113;41.822;23.564;2024-03-22T00:28:37;-11175.09;;;8.71;43.28
10145;BME280;5113;41.822;23.564;2024-03-22T00:31:41;-11187.75;;;9.16;42.78
10145;BME280;5113;41.822;23.564;2024-03-22T00:34:48;-11200.00;;;9.60;41.95
10145;BME280;5113;41.822;23.564;2024-03-22T00:37:52;-11185.66;;;9.09;42.19
10145;BME280;5113;41.822;23.564;2024-03-22T00:40:58;-11217.00;;;10.22;40.44
10145;BME280;5113;41.822;23.564;2024-03-22T00:44:04;-11211.09;;;10.01;39.83
10145;BME280;5113;41.822;23.564;2024-03-22T00:47:09;-11206.31;;;9.83;40.60
10145;BME280;5113;41.822;23.564;2024-03-22T00:50:16;-11221.38;;;10.38;40.64
10145;BME280;5113;41.822;23.564;2024-03-22T00:53:21;-11198.03;;;9.53;41.15
10145;BME280;5113;41.822;23.564;2024-03-22T00:56:26;-11194.94;;;9.42;41.65
10145;BME280;5113;41.822;23.564;2024-03-22T00:59:30;-11174.69;;;8.69;42.89
10145;BME280;5113;41.822;23.564;2024-03-22T01:02:36;-11186.63;;;9.12;42.35
10145;BME280;5113;41.822;23.564;2024-03-22T01:05:41;-11210.41;;;9.98;41.30
10145;BME280;5113;41.822;23.564;2024-03-22T01:08:48;-11223.75;;;10.46;40.28
10145;BME280;5113;41.822;23.564;2024-03-22T01:11:54;-11213.06;;;10.08;40.24
10145;BME280;5113;41.822;23.564;2024-03-22T01:14:58;-11191.69;;;9.31;41.59
10145;BME280;5113;41.822;23.564;2024-03-22T01:18:04;-11193.25;;;9.36;41.24
10145;BME280;5113;41.822;23.564;2024-03-22T01:21:12;-11219.53;;;10.31;40.51
10145;BME280;5113;41.822;23.564;2024-03-22T01:24:17;-11201.25;;;9.65;41.00
10145;BME280;5113;41.822;23.564;2024-03-22T01:27:21;-11228.53;;;10.64;39.79
10145;BME280;5113;41.822;23.564;2024-03-22T01:30:27;-11212.78;;;10.07;40.57
10145;BME280;5113;41.822;23.564;2024-03-22T01:33:33;-11219.53;;;10.31;40.20
10145;BME280;5113;41.822;23.564;2024-03-22T01:36:40;-11218.97;;;10.29;40.92
10145;BME280;5113;41.822;23.564;2024-03-22T01:39:45;-11217.00;;;10.22;40.01
10145;BME280;5113;41.822;23.564;2024-03-22T01:42:53;-11212.22;;;10.05;41.11
10145;BME280;5113;41.822;23.564;2024-03-22T01:45:58;-11204.63;;;9.77;41.28
10145;BME280;5113;41.822;23.564;2024-03-22T01:49:02;-11187.19;;;9.14;42.14
10145;BME280;5113;41.822;23.564;2024-03-22T01:52:10;-11184.38;;;9.04;42.20
10145;BME280;5113;41.822;23.564;2024-03-22T01:55:14;-11196.75;;;9.49;41.77
10145;BME280;5113;41.822;23.564;2024-03-22T01:58:21;-11185.22;;;9.07;42.07
10145;BME280;5113;41.822;23.564;2024-03-22T02:01:25;-11195.34;;;9.44;41.59
10145;BME280;5113;41.822;23.564;2024-03-22T02:04:31;-11184.66;;;9.05;41.89
10145;BME280;5113;41.822;23.564;2024-03-22T02:07:37;-11202.09;;;9.68;41.30
10145;BME280;5113;41.822;23.564;2024-03-22T02:10:43;-11140.81;;;7.47;44.85
10145;BME280;5113;41.822;23.564;2024-03-22T02:13:47;-11108.09;;;6.28;46.51
10145;BME280;5113;41.822;23.564;2024-03-22T02:16:53;-11131.25;;;7.12;46.06
10145;BME280;5113;41.822;23.564;2024-03-22T02:19:59;-11152.75;;;7.90;44.10
10145;BME280;5113;41.822;23.564;2024-03-22T02:23:05;-11163.59;;;8.29;43.54
10145;BME280;5113;41.822;23.564;2024-03-22T02:26:11;-11166.69;;;8.40;43.25
10145;BME280;5113;41.822;23.564;2024-03-22T02:29:16;-11184.66;;;9.05;42.18
10145;BME280;5113;41.822;23.564;2024-03-22T02:32:21;-11191.00;;;9.28;42.09
10145;BME280;5113;41.822;23.564;2024-03-22T02:35:26;-11160.34;;;8.17;43.17
10145;BME280;5113;41.822;23.564;2024-03-22T02:38:32;-11182.00;;;8.96;42.44
10145;BME280;5113;41.822;23.564;2024-03-22T02:41:39;-11163.88;;;8.30;43.50
10145;BME280;5113;41.822;23.564;2024-03-22T02:44:44;-11178.47;;;8.83;42.16
10145;BME280;5113;41.822;23.564;2024-03-22T02:47:50;-11195.50;;;9.44;40.98
10145;BME280;5113;41.822;23.564;2024-03-22T02:50:55;-11191.13;;;9.28;41.28
10145;BME280;5113;41.822;23.564;2024-03-22T02:54:01;-11175.25;;;8.71;41.98
10145;BME280;5113;41.822;23.564;2024-03-22T02:57:07;-11188.31;;;9.18;42.14
10145;BME280;5113;41.822;23.564;2024-03-22T03:00:12;-11206.88;;;9.85;40.97
10145;BME280;5113;41.822;23.564;2024-03-22T03:03:17;-11176.78;;;8.77;42.21
10145;BME280;5113;41.822;23.564;2024-03-22T03:06:23;-11136.03;;;7.29;44.31
10145;BME280;5113;41.822;23.564;2024-03-22T03:09:28;-11155.00;;;7.98;44.12
10145;BME280;5113;41.822;23.564;2024-03-22T03:12:36;-11157.41;;;8.07;43.75
10145;BME280;5113;41.822;23.564;2024-03-22T03:15:40;-11114.28;;;6.51;46.51
10145;BME280;5113;41.822;23.564;2024-03-22T03:18:46;-11124.81;;;6.89;45.59
10145;BME280;5113;41.822;23.564;2024-03-22T03:21:51;-11157.97;;;8.09;43.54
10145;BME280;5113;41.822;23.564;2024-03-22T03:24:56;-11160.63;;;8.18;43.29
10145;BME280;5113;41.822;23.564;2024-03-22T03:28:03;-11147.84;;;7.72;44.43
10145;BME280;5113;41.822;23.564;2024-03-22T03:31:10;-11161.19;;;8.20;42.89
10145;BME280;5113;41.822;23.564;2024-03-22T03:34:15;-11156.00;;;8.02;43.68
10145;BME280;5113;41.822;23.564;2024-03-22T03:37:21;-11134.06;;;7.22;44.98
10145;BME280;5113;41.822;23.564;2024-03-22T03:40:25;-11173.56;;;8.65;43.24
10145;BME280;5113;41.822;23.564;2024-03-22T03:43:33;-11183.13;;;9.00;41.71
10145;BME280;5113;41.822;23.564;2024-03-22T03:46:37;-11172.59;;;8.62;42.15
10145;BME280;5113;41.822;23.564;2024-03-22T03:49:45;-11194.22;;;9.40;41.68
10145;BME280;5113;41.822;23.564;2024-03-22T03:52:49;-11181.00;;;8.92;42.23
10145;BME280;5113;41.822;23.564;2024-03-22T03:55:54;-11184.38;;;9.04;41.54
10145;BME280;5113;41.822;23.564;2024-03-22T03:59:00;-11186.63;;;9.12;42.16
10145;BME280;5113;41.822;23.564;2024-03-22T04:02:06;-11182.28;;;8.97;41.61
10145;BME280;5113;41.822;23.564;2024-03-22T04:05:11;-11162.47;;;8.25;43.02
10145;BME280;5113;41.822;23.564;2024-03-22T04:08:15;-11170.75;;;8.55;42.43
10145;BME280;5113;41.822;23.564;2024-03-22T04:11:20;-11177.91;;;8.81;42.90
10145;BME280;5113;41.822;23.564;2024-03-22T04:14:27;-11175.09;;;8.71;42.93
10145;BME280;5113;41.822;23.564;2024-03-22T04:17:32;-11182.28;;;8.97;42.73
10145;BME280;5113;41.822;23.564;2024-03-22T04:20:36;-11179.59;;;8.87;42.53
10145;BME280;5113;41.822;23.564;2024-03-22T04:23:42;-11151.91;;;7.87;43.74
10145;BME280;5113;41.822;23.564;2024-03-22T04:26:48;-11153.03;;;7.91;44.37
10145;BME280;5113;41.822;23.564;2024-03-22T04:29:54;-11166.25;;;8.39;43.20
10145;BME280;5113;41.822;23.564;2024-03-22T04:32:59;-11155.72;;;8.01;43.32
10145;BME280;5113;41.822;23.564;2024-03-22T04:36:04;-11124.53;;;6.88;44.75
10145;BME280;5113;41.822;23.564;2024-03-22T04:39:09;-11120.16;;;6.72;45.64
10145;BME280;5113;41.822;23.564;2024-03-22T04:42:16;-11118.06;;;6.65;45.57
10145;BME280;5113;41.822;23.564;2024-03-22T04:45:23;-11160.63;;;8.18;43.52
10145;BME280;5113;41.822;23.564;2024-03-22T04:48:28;-11141.09;;;7.48;44.29
10145;BME280;5113;41.822;23.564;2024-03-22T04:51:33;-11179.03;;;8.85;42.06
10145;BME280;5113;41.822;23.564;2024-03-22T04:54:38;-11171.19;;;8.56;42.05
10145;BME280;5113;41.822;23.564;2024-03-22T04:57:42;-11195.06;;;9.43;41.49
10145;BME280;5113;41.822;23.564;2024-03-22T05:00:56;-11199.28;;;9.58;40.83
10145;BME280;5113;41.822;23.564;2024-03-22T05:04:01;-11197.03;;;9.50;40.92
10145;BME280;5113;41.822;23.564;2024-03-22T05:07:07;-11175.38;;;8.72;42.07
10145;BME280;5113;41.822;23.564;2024-03-22T05:10:12;-11168.50;;;8.47;42.64
10145;BME280;5113;41.822;23.564;2024-03-22T05:13:17;-11182.69;;;8.98;42.05
10145;BME280;5113;41.822;23.564;2024-03-22T05:16:24;-11216.59;;;10.20;40.58
10145;BME280;5113;41.822;23.564;2024-03-22T05:19:30;-11162.19;;;8.24;42.77
10145;BME280;5113;41.822;23.564;2024-03-22T05:22:35;-11214.91;;;10.14;41.29
10145;BME280;5113;41.822;23.564;2024-03-22T05:25:40;-11205.75;;;9.81;40.87
10145;BME280;5113;41.822;23.564;2024-03-22T05:28:45;-11237.97;;;10.98;39.20
10145;BME280;5113;41.822;23.564;2024-03-22T05:31:52;-11248.94;;;11.37;39.19
10145;BME280;5113;41.822;23.564;2024-03-22T05:34:56;-11250.34;;;11.42;38.45
10145;BME280;5113;41.822;23.564;2024-03-22T05:38:02;-11247.97;;;11.34;38.48
10145;BME280;5113;41.822;23.564;2024-03-22T05:41:06;-11250.22;;;11.42;38.49
10145;BME280;5113;41.822;23.564;2024-03-22T05:44:12;-11273.72;;;12.27;37.58
10145;BME280;5113;41.822;23.564;2024-03-22T05:47:18;-11266.25;;;12.00;38.32
10145;BME280;5113;41.822;23.564;2024-03-22T05:50:24;-11248.09;;;11.34;38.31
10145;BME280;5113;41.822;23.564;2024-03-22T05:53:28;-11263.03;;;11.88;37.61
10145;BME280;5113;41.822;23.564;2024-03-22T05:56:34;-11257.25;;;11.67;38.20
10145;BME280;5113;41.822;23.564;2024-03-22T05:59:38;-11264.28;;;11.93;38.18
10145;BME280;5113;41.822;23.564;2024-03-22T06:02:45;-11268.78;;;12.09;38.29
10145;BME280;5113;41.822;23.564;2024-03-22T06:05:50;-11285.25;;;12.68;36.61
10145;BME280;5113;41.822;23.564;2024-03-22T06:08:59;-11291.59;;;12.91;36.46
10145;BME280;5113;41.822;23.564;2024-03-22T06:12:07;-11288.06;;;12.78;36.30
10145;BME280;5113;41.822;23.564;2024-03-22T06:15:11;-11299.19;;;13.18;35.85
10145;BME280;5113;41.822;23.564;2024-03-22T06:18:18;-11287.34;;;12.76;36.15
10145;BME280;5113;41.822;23.564;2024-03-22T06:21:24;-11301.16;;;13.26;35.63
10145;BME280;5113;41.822;23.564;2024-03-22T06:24:31;-11256.97;;;11.66;37.69
10145;BME280;5113;41.822;23.564;2024-03-22T06:27:36;-11247.97;;;11.34;38.89
10145;BME280;5113;41.822;23.564;2024-03-22T06:30:40;-11246.84;;;11.30;38.21
10145;BME280;5113;41.822;23.564;2024-03-22T06:33:47;-11293.84;;;12.99;37.00
10145;BME280;5113;41.822;23.564;2024-03-22T06:36:52;-11282.44;;;12.58;36.76
10145;BME280;5113;41.822;23.564;2024-03-22T06:39:57;-11246.56;;;11.29;38.74
10145;BME280;5113;41.822;23.564;2024-03-22T06:43:02;-11305.66;;;13.42;36.53
10145;BME280;5113;41.822;23.564;2024-03-22T06:46:08;-11308.75;;;13.53;35.98
10145;BME280;5113;41.822;23.564;2024-03-22T06:49:14;-11319.47;;;13.92;35.90
10145;BME280;5113;41.822;23.564;2024-03-22T06:52:19;-11313.28;;;13.69;35.66
10145;BME280;5113;41.822;23.564;2024-03-22T06:55:24;-11287.91;;;12.78;36.28
10145;BME280;5113;41.822;23.564;2024-03-22T06:58:28;-11317.78;;;13.85;35.67
10145;BME280;5113;41.822;23.564;2024-03-22T07:01:34;-11273.00;;;12.24;39.85
10145;BME280;5113;41.822;23.564;2024-03-22T07:04:41;-11308.47;;;13.52;38.60
10145;BME280;5113;41.822;23.564;2024-03-22T07:07:46;-11303.97;;;13.36;38.37
10145;BME280;5113;41.822;23.564;2024-03-22T07:10:50;-11323.41;;;14.06;36.18
10145;BME280;5113;41.822;23.564;2024-03-22T07:13:56;-11354.38;;;15.17;34.63
10145;BME280;5113;41.822;23.564;2024-03-22T07:17:02;-11346.50;;;14.89;35.18
10145;BME280;5113;41.822;23.564;2024-03-22T07:20:08;-11351.28;;;15.06;35.21
10145;BME280;5113;41.822;23.564;2024-03-22T07:23:14;-11332.41;;;14.38;35.35
10145;BME280;5113;41.822;23.564;2024-03-22T07:26:18;-11353.53;;;15.14;34.58
10145;BME280;5113;41.822;23.564;2024-03-22T07:29:23;-11371.72;;;15.80;33.23
10145;BME280;5113;41.822;23.564;2024-03-22T07:32:28;-11351.72;;;15.08;32.85
10145;BME280;5113;41.822;23.564;2024-03-22T07:35:36;-11365.53;;;15.58;33.07
10145;BME280;5113;41.822;23.564;2024-03-22T07:38:40;-11402.56;;;16.91;31.66
10145;BME280;5113;41.822;23.564;2024-03-22T07:41:45;-11406.94;;;17.07;30.25
10145;BME280;5113;41.822;23.564;2024-03-22T07:44:50;-11393.97;;;16.60;30.64
10145;BME280;5113;41.822;23.564;2024-03-22T07:47:55;-11378.47;;;16.04;31.57
10145;BME280;5113;41.822;23.564;2024-03-22T07:51:01;-11373.84;;;15.88;32.98
10145;BME280;5113;41.822;23.564;2024-03-22T07:54:07;-11395.25;;;16.65;32.43
10145;BME280;5113;41.822;23.564;2024-03-22T07:57:13;-11421.75;;;17.60;32.06
10145;BME280;5113;41.822;23.564;2024-03-22T08:00:17;-11443.03;;;18.37;30.83
10145;BME280;5113;41.822;23.564;2024-03-22T08:03:23;-11445.44;;;18.45;31.14
10145;BME280;5113;41.822;23.564;2024-03-22T08:06:30;-11423.72;;;17.67;30.97
10145;BME280;5113;41.822;23.564;2024-03-22T08:09:35;-11426.41;;;17.77;31.07
10145;BME280;5113;41.822;23.564;2024-03-22T08:12:39;-11439.22;;;18.23;31.12
10145;BME280;5113;41.822;23.564;2024-03-22T08:15:44;-11453.19;;;18.73;30.09
10145;BME280;5113;41.822;23.564;2024-03-22T08:18:50;-11445.44;;;18.45;30.63
10145;BME280;5113;41.822;23.564;2024-03-22T08:21:56;-11450.78;;;18.65;29.89
10145;BME280;5113;41.822;23.564;2024-03-22T08:25:01;-11443.88;;;18.40;29.83
10145;BME280;5113;41.822;23.564;2024-03-22T08:28:06;-11485.75;;;19.91;28.33
10145;BME280;5113;41.822;23.564;2024-03-22T08:31:11;-11484.78;;;19.87;27.96
10145;BME280;5113;41.822;23.564;2024-03-22T08:34:15;-11460.09;;;18.98;28.33
10145;BME280;5113;41.822;23.564;2024-03-22T08:37:39;-11463.19;;;19.09;28.24
10145;BME280;5113;41.822;23.564;2024-03-22T08:40:45;-11506.62;;;20.66;27.04
10145;BME280;5113;41.822;23.564;2024-03-22T08:43:50;-11486.75;;;19.94;26.79
10145;BME280;5113;41.822;23.564;2024-03-22T08:46:56;-11484.63;;;19.87;26.69
10145;BME280;5113;41.822;23.564;2024-03-22T08:50:01;-11496.19;;;20.28;26.04
10145;BME280;5113;41.822;23.564;2024-03-22T08:53:08;-11502.28;;;20.50;26.42
10145;BME280;5113;41.822;23.564;2024-03-22T08:56:12;-11560.69;;;22.60;24.03
10145;BME280;5113;41.822;23.564;2024-03-22T08:59:18;-11532.59;;;21.59;24.49
10145;BME280;5113;41.822;23.564;2024-03-22T09:02:22;-11527.38;;;21.40;24.22
10145;BME280;5113;41.822;23.564;2024-03-22T09:05:28;-11538.38;;;21.80;23.77
10145;BME280;5113;41.822;23.564;2024-03-22T09:08:35;-11483.78;;;19.84;25.32
10145;BME280;5113;41.822;23.564;2024-03-22T09:11:39;-11493.25;;;20.18;24.37
10145;BME280;5113;41.822;23.564;2024-03-22T09:14:45;-11502.69;;;20.52;24.62
10145;BME280;5113;41.822;23.564;2024-03-22T09:17:51;-11527.81;;;21.42;23.50
10145;BME280;5113;41.822;23.564;2024-03-22T09:20:56;-11555.31;;;22.41;22.51
10145;BME280;5113;41.822;23.564;2024-03-22T09:24:04;-11555.19;;;22.40;23.59
10145;BME280;5113;41.822;23.564;2024-03-22T09:27:08;-11487.75;;;19.98;24.48
10145;BME280;5113;41.822;23.564;2024-03-22T09:30:14;-11493.09;;;20.17;25.50
10145;BME280;5113;41.822;23.564;2024-03-22T09:33:19;-11501.84;;;20.49;25.11
10145;BME280;5113;41.822;23.564;2024-03-22T09:36:24;-11502.97;;;20.53;24.29
10145;BME280;5113;41.822;23.564;2024-03-22T09:39:31;-11492.53;;;20.15;24.98
10145;BME280;5113;41.822;23.564;2024-03-22T09:42:37;-11531.19;;;21.54;24.29
10145;BME280;5113;41.822;23.564;2024-03-22T09:45:45;-11494.66;;;20.23;25.13
10145;BME280;5113;41.822;23.564;2024-03-22T09:48:52;-11542.06;;;21.93;24.35
10145;BME280;5113;41.822;23.564;2024-03-22T09:51:59;-11533.44;;;21.62;24.32
10145;BME280;5113;41.822;23.564;2024-03-22T09:55:06;-11549.81;;;22.21;23.99
10145;BME280;5113;41.822;23.564;2024-03-22T09:58:12;-11483.94;;;19.84;25.02
10145;BME280;5113;41.822;23.564;2024-03-22T10:01:16;-11533.03;;;21.61;24.24
10145;BME280;5113;41.822;23.564;2024-03-22T10:04:22;-11490.41;;;20.07;25.30
10145;BME280;5113;41.822;23.564;2024-03-22T10:07:27;-11489.72;;;20.05;24.77
10145;BME280;5113;41.822;23.564;2024-03-22T10:10:33;-11508.06;;;20.71;24.86
10145;BME280;5113;41.822;23.564;2024-03-22T10:13:39;-11467.16;;;19.24;25.69
10145;BME280;5113;41.822;23.564;2024-03-22T10:16:44;-11517.50;;;21.05;24.59
10145;BME280;5113;41.822;23.564;2024-03-22T10:19:49;-11550.94;;;22.25;23.69
10145;BME280;5113;41.822;23.564;2024-03-22T10:22:56;-11553.63;;;22.35;23.49
10145;BME280;5113;41.822;23.564;2024-03-22T10:26:04;-11523.72;;;21.27;23.74
10145;BME280;5113;41.822;23.564;2024-03-22T10:29:11;-11587.34;;;23.56;22.69
10145;BME280;5113;41.822;23.564;2024-03-22T10:32:17;-11604.00;;;24.16;21.65
10145;BME280;5113;41.822;23.564;2024-03-22T10:35:23;-11568.44;;;22.88;22.53
10145;BME280;5113;41.822;23.564;2024-03-22T10:38:30;-11585.38;;;23.49;22.64
10145;BME280;5113;41.822;23.564;2024-03-22T10:41:38;-11526.53;;;21.37;23.90
10145;BME280;5113;41.822;23.564;2024-03-22T10:44:43;-11599.63;;;24.00;22.60
10145;BME280;5113;41.822;23.564;2024-03-22T10:47:49;-11576.34;;;23.17;22.91
10145;BME280;5113;41.822;23.564;2024-03-22T10:50:56;-11593.84;;;23.80;23.35
10145;BME280;5113;41.822;23.564;2024-03-22T10:54:05;-11599.22;;;23.99;23.92
10145;BME280;5113;41.822;23.564;2024-03-22T10:57:15;-11581.16;;;23.34;23.71
10145;BME280;5113;41.822;23.564;2024-03-22T11:00:27;-11585.53;;;23.50;23.28
10145;BME280;5113;41.822;23.564;2024-03-22T11:03:35;-11586.66;;;23.54;22.77
10145;BME280;5113;41.822;23.564;2024-03-22T11:06:40;-11483.94;;;19.84;24.48
10145;BME280;5113;41.822;23.564;2024-03-22T11:09:52;-11519.47;;;21.12;23.79
10145;BME280;5113;41.822;23.564;2024-03-22T11:13:00;-11537.41;;;21.77;23.91
10145;BME280;5113;41.822;23.564;2024-03-22T11:16:06;-11556.88;;;22.47;22.74
10145;BME280;5113;41.822;23.564;2024-03-22T11:19:14;-11648.63;;;25.77;21.62
10145;BME280;5113;41.822;23.564;2024-03-22T11:22:19;-11591.03;;;23.69;22.76
10145;BME280;5113;41.822;23.564;2024-03-22T11:25:24;-11622.38;;;24.82;22.20
10145;BME280;5113;41.822;23.564;2024-03-22T11:28:32;-11564.78;;;22.75;23.58
10145;BME280;5113;41.822;23.564;2024-03-22T11:31:36;-11594.84;;;23.83;21.98
10145;BME280;5113;41.822;23.564;2024-03-22T11:34:42;-11593.72;;;23.79;21.90
10145;BME280;5113;41.822;23.564;2024-03-22T11:37:48;-11601.91;;;24.09;21.88
10145;BME280;5113;41.822;23.564;2024-03-22T11:40:56;-11614.47;;;24.54;21.46
10145;BME280;5113;41.822;23.564;2024-03-22T11:44:03;-11604.84;;;24.19;22.35
10145;BME280;5113;41.822;23.564;2024-03-22T11:47:09;-11581.28;;;23.34;22.78
10145;BME280;5113;41.822;23.564;2024-03-22T11:50:15;-11574.94;;;23.12;22.45
10145;BME280;5113;41.822;23.564;2024-03-22T11:53:21;-11591.44;;;23.71;22.95
10145;BME280;5113;41.822;23.564;2024-03-22T11:56:26;-11587.63;;;23.57;23.05
10145;BME280;5113;41.822;23.564;2024-03-22T11:59:33;-11621.66;;;24.80;22.35
10145;BME280;5113;41.822;23.564;2024-03-22T12:02:38;-11642.97;;;25.56;21.41
10145;BME280;5113;41.822;23.564;2024-03-22T12:05:44;-11562.66;;;22.67;22.94
10145;BME280;5113;41.822;23.564;2024-03-22T12:08:49;-11507.22;;;20.68;25.11
10145;BME280;5113;41.822;23.564;2024-03-22T12:11:55;-11541.34;;;21.91;23.83
10145;BME280;5113;41.822;23.564;2024-03-22T12:15:01;-11593.72;;;23.79;22.03
10145;BME280;5113;41.822;23.564;2024-03-22T12:18:07;-11575.91;;;23.15;22.89
10145;BME280;5113;41.822;23.564;2024-03-22T12:21:12;-11593.84;;;23.80;23.29
10145;BME280;5113;41.822;23.564;2024-03-22T12:24:18;-11583.41;;;23.42;22.96
10145;BME280;5113;41.822;23.564;2024-03-22T12:27:22;-11534.56;;;21.66;24.11
10145;BME280;5113;41.822;23.564;2024-03-22T12:30:30;-11531.75;;;21.56;23.91
10145;BME280;5113;41.822;23.564;2024-03-22T12:33:34;-11520.47;;;21.16;23.94
10145;BME280;5113;41.822;23.564;2024-03-22T12:36:40;-11551.94;;;22.29;23.64
10145;BME280;5113;41.822;23.564;2024-03-22T12:39:44;-11576.75;;;23.18;22.73
10145;BME280;5113;41.822;23.564;2024-03-22T12:42:51;-11557.56;;;22.49;24.47
10145;BME280;5113;41.822;23.564;2024-03-22T12:45:57;-11592.72;;;23.76;23.47
10145;BME280;5113;41.822;23.564;2024-03-22T12:49:02;-11573.09;;;23.05;23.76
10145;BME280;5113;41.822;23.564;2024-03-22T12:52:07;-11607.97;;;24.30;22.73
10145;BME280;5113;41.822;23.564;2024-03-22T12:55:12;-11549.53;;;22.20;23.67
10145;BME280;5113;41.822;23.564;2024-03-22T12:58:16;-11597.53;;;23.93;23.24
10145;BME280;5113;41.822;23.564;2024-03-22T13:01:23;-11629.00;;;25.06;21.84
10145;BME280;5113;41.822;23.564;2024-03-22T13:04:28;-11641.84;;;25.52;21.13
10145;BME280;5113;41.822;23.564;2024-03-22T13:07:34;-11584.94;;;23.48;21.95
10145;BME280;5113;41.822;23.564;2024-03-22T13:10:38;-11600.06;;;24.02;22.35
10145;BME280;5113;41.822;23.564;2024-03-22T13:13:46;-11642.00;;;25.53;22.32
10145;BME280;5113;41.822;23.564;2024-03-22T13:16:52;-11633.53;;;25.22;21.95
10145;BME280;5113;41.822;23.564;2024-03-22T13:19:57;-11603.16;;;24.13;21.83
10145;BME280;5113;41.822;23.564;2024-03-22T13:23:03;-11558.56;;;22.53;23.15
10145;BME280;5113;41.822;23.564;2024-03-22T13:26:09;-11614.47;;;24.54;22.44
10145;BME280;5113;41.822;23.564;2024-03-22T13:29:13;-11529.78;;;21.49;24.37
10145;BME280;5113;41.822;23.564;2024-03-22T13:32:20;-11564.78;;;22.75;23.23
10145;BME280;5113;41.822;23.564;2024-03-22T13:35:25;-11592.56;;;23.75;22.58
10145;BME280;5113;41.822;23.564;2024-03-22T13:38:30;-11594.69;;;23.83;22.65
10145;BME280;5113;41.822;23.564;2024-03-22T13:41:34;-11569.56;;;22.92;22.60
10145;BME280;5113;41.822;23.564;2024-03-22T13:44:40;-11526.53;;;21.37;24.52
10145;BME280;5113;41.822;23.564;2024-03-22T13:47:47;-11542.47;;;21.95;23.75
10145;BME280;5113;41.822;23.564;2024-03-22T13:50:53;-11601.75;;;24.08;22.17
10145;BME280;5113;41.822;23.564;2024-03-22T13:53:58;-11612.47;;;24.47;22.79
10145;BME280;5113;41.822;23.564;2024-03-22T14:00:09;-11548.25;;;22.16;23.37
10145;BME280;5113;41.822;23.564;2024-03-22T14:03:20;-11571.28;;;22.98;22.46
10145;BME280;5113;41.822;23.564;2024-03-22T14:06:25;-11528.66;;;21.45;23.70
10145;BME280;5113;41.822;23.564;2024-03-22T14:09:29;-11568.59;;;22.89;22.77
10145;BME280;5113;41.822;23.564;2024-03-22T14:12:35;-11618.00;;;24.66;22.17
10145;BME280;5113;41.822;23.564;2024-03-22T14:15:40;-11612.47;;;24.47;21.38
10145;BME280;5113;41.822;23.564;2024-03-22T14:18:47;-11594.28;;;23.81;21.65
10145;BME280;5113;41.822;23.564;2024-03-22T14:21:53;-11566.47;;;22.81;21.76
10145;BME280;5113;41.822;23.564;2024-03-22T14:24:59;-11571.41;;;22.99;22.13
10145;BME280;5113;41.822;23.564;2024-03-22T14:28:03;-11565.06;;;22.76;22.93
10145;BME280;5113;41.822;23.564;2024-03-22T14:31:09;-11603.72;;;24.15;21.76
10145;BME280;5113;41.822;23.564;2024-03-22T14:34:17;-11552.91;;;22.32;23.61
10145;BME280;5113;41.822;23.564;2024-03-22T14:37:22;-11553.47;;;22.34;23.59
10145;BME280;5113;41.822;23.564;2024-03-22T14:40:27;-11539.78;;;21.85;23.70
10145;BME280;5113;41.822;23.564;2024-03-22T14:43:35;-11534.00;;;21.64;24.04
10145;BME280;5113;41.822;23.564;2024-03-22T14:46:40;-11536.84;;;21.74;23.89
10145;BME280;5113;41.822;23.564;2024-03-22T14:49:48;-11554.19;;;22.37;23.77
10145;BME280;5113;41.822;23.564;2024-03-22T14:52:53;-11553.19;;;22.33;24.47
10145;BME280;5113;41.822;23.564;2024-03-22T14:56:01;-11554.63;;;22.38;24.42
10145;BME280;5113;41.822;23.564;2024-03-22T14:59:08;-11540.78;;;21.89;24.91
10145;BME280;5113;41.822;23.564;2024-03-22T15:02:14;-11551.37;;;22.27;24.61
10145;BME280;5113;41.822;23.564;2024-03-22T15:05:20;-11537.13;;;21.75;25.47
10145;BME280;5113;41.822;23.564;2024-03-22T15:08:26;-11564.91;;;22.76;24.47
10145;BME280;5113;41.822;23.564;2024-03-22T15:11:32;-11580.28;;;23.31;24.06
10145;BME280;5113;41.822;23.564;2024-03-22T15:14:39;-11549.81;;;22.21;24.68
10145;BME280;5113;41.822;23.564;2024-03-22T15:17:42;-11557.00;;;22.47;24.54
10145;BME280;5113;41.822;23.564;2024-03-22T15:20:49;-11548.25;;;22.16;24.45
10145;BME280;5113;41.822;23.564;2024-03-22T15:23:55;-11551.78;;;22.28;24.83
10145;BME280;5113;41.822;23.564;2024-03-22T15:26:59;-11599.63;;;24.00;23.85
10145;BME280;5113;41.822;23.564;2024-03-22T15:30:06;-11592.84;;;23.76;23.76
10145;BME280;5113;41.822;23.564;2024-03-22T15:33:11;-11578.88;;;23.26;23.78
10145;BME280;5113;41.822;23.564;2024-03-22T15:36:18;-11527.09;;;21.39;24.75
10145;BME280;5113;41.822;23.564;2024-03-22T15:39:24;-11559.69;;;22.57;24.42
10145;BME280;5113;41.822;23.564;2024-03-22T15:42:29;-11534.00;;;21.64;25.80
10145;BME280;5113;41.822;23.564;2024-03-22T15:45:35;-11530.47;;;21.52;25.30
10145;BME280;5113;41.822;23.564;2024-03-22T15:48:40;-11568.16;;;22.87;24.74
10145;BME280;5113;41.822;23.564;2024-03-22T15:51:47;-11515.09;;;20.96;26.54
10145;BME280;5113;41.822;23.564;2024-03-22T15:54:53;-11534.56;;;21.66;25.76
10145;BME280;5113;41.822;23.564;2024-03-22T15:57:57;-11529.34;;;21.48;26.24
10145;BME280;5113;41.822;23.564;2024-03-22T16:01:03;-11487.19;;;19.96;28.10
10145;BME280;5113;41.822;23.564;2024-03-22T16:04:09;-11525.84;;;21.35;27.06
10145;BME280;5113;41.822;23.564;2024-03-22T16:07:15;-11533.72;;;21.63;27.01
10145;BME280;5113;41.822;23.564;2024-03-22T16:10:21;-11528.38;;;21.44;27.44
10145;BME280;5113;41.822;23.564;2024-03-22T16:13:25;-11507.34;;;20.68;27.90
10145;BME280;5113;41.822;23.564;2024-03-22T16:16:31;-11529.06;;;21.47;27.90